createdAt,value
2019-04-11T00:01:17.702Z,0.70
2019-04-11T00:03:49.380Z,0.70
2019-04-11T00:06:19.846Z,0.70
2019-04-11T00:08:50.667Z,0.70
2019-04-11T00:11:21.892Z,0.70
2019-04-11T00:13:53.606Z,0.70
2019-04-11T00:16:25.468Z,0.70
2019-04-11T00:18:56.962Z,0.60
2019-04-11T00:21:28.847Z,0.60
2019-04-11T00:24:00.665Z,0.60
2019-04-11T00:26:32.604Z,0.70
2019-04-11T00:29:03.956Z,0.70
2019-04-11T00:31:34.768Z,0.60
2019-04-11T00:34:06.838Z,0.60
2019-04-11T00:36:38.793Z,0.60
2019-04-11T00:39:11.430Z,0.60
2019-04-11T00:41:42.564Z,0.60
2019-04-11T00:44:13.424Z,0.60
2019-04-11T00:46:44.619Z,0.60
2019-04-11T00:49:15.195Z,0.60
2019-04-11T00:51:46.189Z,0.60
2019-04-11T00:54:17.039Z,0.60
2019-04-11T00:56:48.448Z,0.60
2019-04-11T00:59:20.373Z,0.60
2019-04-11T01:01:53.315Z,0.60
2019-04-11T01:04:24.120Z,0.60
2019-04-11T01:06:54.797Z,0.60
2019-04-11T01:09:26.324Z,0.60
2019-04-11T01:11:56.987Z,0.60
2019-04-11T01:14:28.050Z,0.60
2019-04-11T01:16:59.031Z,0.60
2019-04-11T01:19:30.890Z,0.60
2019-04-11T01:22:01.782Z,0.60
2019-04-11T01:24:33.580Z,0.60
2019-04-11T01:27:05.591Z,0.60
2019-04-11T01:29:37.664Z,0.60
2019-04-11T01:32:10.550Z,0.60
2019-04-11T01:34:42.494Z,0.60
2019-04-11T01:37:13.725Z,0.60
2019-04-11T01:39:51.998Z,0.60
2019-04-11T01:42:22.986Z,0.60
2019-04-11T01:44:54.718Z,0.60
2019-04-11T01:47:42.652Z,0.60
2019-04-11T01:50:16.773Z,0.60
2019-04-11T01:52:48.654Z,0.60
2019-04-11T01:55:20.593Z,0.60
2019-04-11T01:57:51.969Z,0.60
2019-04-11T02:00:43.898Z,0.60
2019-04-11T02:03:17.113Z,0.60
2019-04-11T02:05:49.511Z,0.60
2019-04-11T02:08:20.306Z,0.60
2019-04-11T02:10:51.106Z,0.60
2019-04-11T02:13:21.898Z,0.60
2019-04-11T02:15:55.781Z,0.60
2019-04-11T02:18:25.584Z,0.60
2019-04-11T02:20:57.660Z,0.60
2019-04-11T02:23:37.275Z,0.60
2019-04-11T02:26:21.064Z,0.60
2019-04-11T02:28:51.714Z,0.50
2019-04-11T02:31:23.217Z,0.50
2019-04-11T02:33:55.239Z,0.50
2019-04-11T02:36:27.312Z,0.50
2019-04-11T02:39:02.166Z,0.50
2019-04-11T02:41:32.027Z,0.50
2019-04-11T02:44:03.566Z,0.50
2019-04-11T02:46:42.749Z,0.50
2019-04-11T02:49:08.124Z,0.50
2019-04-11T02:51:39.450Z,0.50
2019-04-11T02:54:11.528Z,0.50
2019-04-11T02:56:43.673Z,0.50
2019-04-11T02:59:15.508Z,0.50
2019-04-11T03:01:46.486Z,0.50
2019-04-11T03:04:20.080Z,0.40
2019-04-11T03:06:49.950Z,0.40
2019-04-11T03:09:22.150Z,0.40
2019-04-11T03:11:54.480Z,0.40
2019-04-11T03:14:27.628Z,0.40
2019-04-11T03:17:09.460Z,0.40
2019-04-11T03:19:45.338Z,0.40
2019-04-11T03:22:03.525Z,0.40
2019-04-11T03:24:35.913Z,0.40
2019-04-11T03:27:07.745Z,0.40
2019-04-11T03:29:40.666Z,0.40
2019-04-11T03:32:50.587Z,0.40
2019-04-11T03:35:38.699Z,0.30
2019-04-11T03:37:47.862Z,0.40
2019-04-11T03:40:04.499Z,0.40
2019-04-11T03:42:41.602Z,0.40
2019-04-11T03:45:15.198Z,0.40
2019-04-11T03:47:40.023Z,0.40
2019-04-11T03:50:08.401Z,0.40
2019-04-11T03:52:36.565Z,0.40
2019-04-11T03:55:08.685Z,0.40
2019-04-11T03:57:41.563Z,0.40
2019-04-11T04:00:14.887Z,0.40
2019-04-11T04:02:46.793Z,0.40
2019-04-11T04:05:18.225Z,0.40
2019-04-11T04:07:49.427Z,0.40
2019-04-11T04:10:23.433Z,0.40
2019-04-11T04:12:55.940Z,0.50
2019-04-11T04:15:53.203Z,0.40
2019-04-11T04:18:40.173Z,0.40
2019-04-11T04:21:26.559Z,0.40
2019-04-11T04:23:59.322Z,0.50
2019-04-11T04:26:31.310Z,0.40
2019-04-11T04:29:04.309Z,0.50
2019-04-11T04:31:35.141Z,0.50
2019-04-11T04:34:07.257Z,0.50
2019-04-11T04:36:38.207Z,0.50
2019-04-11T04:39:10.533Z,0.50
2019-04-11T04:41:48.952Z,0.50
2019-04-11T04:44:19.003Z,0.50
2019-04-11T04:47:00.171Z,0.60
2019-04-11T04:49:23.568Z,0.60
2019-04-11T04:51:55.722Z,0.60
2019-04-11T04:54:28.442Z,0.60
2019-04-11T04:57:00.826Z,0.60
2019-04-11T04:59:32.123Z,0.60
2019-04-11T05:02:04.019Z,0.70
2019-04-11T05:04:36.094Z,0.70
2019-04-11T05:07:07.379Z,0.70
2019-04-11T05:09:40.312Z,0.70
2019-04-11T05:12:11.951Z,0.70
2019-04-11T05:14:43.413Z,0.80
2019-04-11T05:17:14.950Z,0.80
2019-04-11T05:19:46.588Z,0.80
2019-04-11T05:22:17.355Z,0.80
2019-04-11T05:24:48.242Z,0.90
2019-04-11T05:27:19.002Z,0.90
2019-04-11T05:29:49.666Z,1.00
2019-04-11T05:32:20.413Z,1.00
2019-04-11T05:34:51.636Z,1.00
2019-04-11T05:37:22.800Z,1.00
2019-04-11T05:39:53.531Z,1.10
2019-04-11T05:42:26.994Z,1.10
2019-04-11T05:44:57.029Z,1.10
2019-04-11T05:47:27.750Z,1.20
2019-04-11T05:50:13.755Z,1.20
2019-04-11T05:52:44.487Z,1.20
2019-04-11T05:55:15.591Z,1.20
2019-04-11T05:57:47.686Z,1.20
2019-04-11T06:00:23.770Z,1.20
2019-04-11T06:03:01.772Z,1.20
2019-04-11T06:05:50.108Z,1.20
2019-04-11T06:08:26.622Z,1.20
2019-04-11T06:11:16.480Z,1.20
2019-04-11T06:14:07.371Z,1.20
2019-04-11T06:16:47.345Z,1.30
2019-04-11T06:19:23.208Z,1.20
2019-04-11T06:21:58.167Z,1.20
2019-04-11T06:25:03.594Z,1.20
2019-04-11T06:27:47.396Z,1.30
2019-04-11T06:30:32.652Z,1.30
2019-04-11T06:33:36.480Z,1.40
2019-04-11T06:36:18.084Z,1.40
2019-04-11T06:39:07.866Z,1.50
2019-04-11T06:42:04.824Z,1.50
2019-04-11T06:44:56.481Z,1.60
2019-04-11T06:48:01.349Z,1.70
2019-04-11T06:50:51.333Z,1.90
2019-04-11T06:53:27.981Z,2.00
2019-04-11T06:56:17.178Z,2.00
2019-04-11T06:58:53.562Z,2.10
2019-04-11T07:01:26.184Z,2.10
2019-04-11T07:04:09.252Z,2.10
2019-04-11T07:06:42.073Z,2.00
2019-04-11T07:09:46.927Z,2.10
2019-04-11T07:12:49.402Z,2.20
2019-04-11T07:15:27.253Z,2.30
2019-04-11T07:18:15.545Z,2.40
2019-04-11T07:20:58.548Z,2.60
2019-04-11T07:23:47.100Z,2.70
2019-04-11T07:26:30.242Z,2.80
2019-04-11T07:29:23.913Z,2.80
2019-04-11T07:32:22.653Z,2.80
2019-04-11T07:35:24.977Z,2.80
2019-04-11T07:37:58.164Z,2.80
2019-04-11T07:40:56.754Z,2.80
2019-04-11T07:43:31.191Z,2.80
2019-04-11T07:46:25.176Z,2.80
2019-04-11T07:48:59.435Z,2.90
2019-04-11T07:51:32.084Z,3.10
2019-04-11T07:54:07.614Z,3.40
2019-04-11T07:56:46.562Z,3.60
2019-04-11T07:59:29.502Z,3.80
2019-04-11T08:02:18.172Z,3.90
2019-04-11T08:05:16.962Z,3.80
2019-04-11T08:07:59.463Z,4.00
2019-04-11T08:10:37.830Z,4.20
2019-04-11T08:13:12.386Z,4.40
2019-04-11T08:16:02.245Z,4.60
2019-04-11T08:18:43.247Z,4.70
2019-04-11T08:21:34.344Z,4.80
2019-04-11T08:24:05.856Z,5.00
2019-04-11T08:26:55.433Z,5.10
2019-04-11T08:29:27.175Z,5.30
2019-04-11T08:32:17.669Z,6.00
2019-04-11T08:34:57.570Z,6.90
2019-04-11T08:37:36.269Z,7.80
2019-04-11T08:40:07.538Z,8.60
2019-04-11T08:42:59.977Z,9.10
2019-04-11T08:45:31.934Z,9.20
2019-04-11T08:48:04.726Z,8.80
2019-04-11T08:50:38.679Z,8.30
2019-04-11T08:53:38.772Z,7.90
2019-04-11T08:56:10.606Z,8.20
2019-04-11T08:59:02.777Z,9.20
2019-04-11T09:01:33.894Z,8.80
2019-04-11T09:04:36.571Z,8.10
2019-04-11T09:07:07.580Z,7.50
2019-04-11T09:09:57.745Z,6.90
2019-04-11T09:12:28.833Z,6.50
2019-04-11T09:15:19.152Z,6.10
2019-04-11T09:17:59.050Z,7.20
2019-04-11T09:20:43.550Z,7.20
2019-04-11T09:23:17.667Z,7.00
2019-04-11T09:26:07.588Z,6.70
2019-04-11T09:28:47.673Z,6.40
2019-04-11T09:31:41.422Z,6.20
2019-04-11T09:34:48.206Z,6.00
2019-04-11T09:37:30.096Z,6.50
2019-04-11T09:40:26.416Z,6.60
2019-04-11T09:43:16.122Z,6.50
2019-04-11T09:46:06.246Z,6.20
2019-04-11T09:49:00.630Z,5.90
2019-04-11T09:51:56.530Z,5.60
2019-04-11T09:54:58.827Z,5.40
2019-04-11T09:57:36.584Z,5.20
2019-04-11T10:00:24.589Z,5.10
2019-04-11T10:03:17.816Z,5.00
2019-04-11T10:05:57.210Z,5.00
2019-04-11T10:08:44.088Z,5.00
2019-04-11T10:11:34.515Z,5.10
2019-04-11T10:14:11.910Z,5.50
2019-04-11T10:17:00.275Z,6.60
2019-04-11T10:19:56.107Z,7.00
2019-04-11T10:22:49.379Z,7.00
2019-04-11T10:25:30.209Z,6.80
2019-04-11T10:28:27.291Z,7.80
2019-04-11T10:31:20.346Z,8.90
2019-04-11T10:34:11.216Z,12.10
2019-04-11T10:36:49.675Z,16.00
2019-04-11T10:39:42.153Z,18.70
2019-04-11T10:42:14.793Z,20.90
2019-04-11T10:45:04.518Z,22.30
2019-04-11T10:47:36.622Z,23.70
2019-04-11T10:50:34.123Z,24.30
2019-04-11T10:53:06.747Z,22.80
2019-04-11T10:55:56.503Z,22.60
2019-04-11T10:58:37.298Z,23.30
2019-04-11T11:01:26.931Z,22.20
2019-04-11T11:04:18.068Z,23.10
2019-04-11T11:06:51.789Z,21.60
2019-04-11T11:09:39.507Z,19.50
2019-04-11T11:12:29.509Z,17.70
2019-04-11T11:15:09.279Z,16.20
2019-04-11T11:21:07.261Z,13.90
2019-04-11T11:23:56.948Z,12.80
2019-04-11T11:26:32.036Z,12.00
2019-04-11T11:29:21.354Z,11.40
2019-04-11T11:31:57.746Z,11.10
2019-04-11T11:34:41.784Z,10.60
2019-04-11T11:37:37.509Z,10.10
2019-04-11T11:40:26.338Z,9.80
2019-04-11T11:43:14.838Z,9.40
2019-04-11T11:46:03.231Z,9.10
2019-04-11T11:48:48.735Z,8.80
2019-04-11T11:51:23.758Z,8.70
2019-04-11T11:54:13.506Z,8.50
2019-04-11T11:56:44.770Z,8.40
2019-04-11T11:59:34.493Z,8.30
2019-04-11T12:02:15.772Z,8.20
2019-04-11T12:04:52.114Z,8.00
2019-04-11T12:07:26.538Z,7.90
2019-04-11T12:10:15.275Z,7.90
2019-04-11T12:13:08.544Z,7.90
2019-04-11T12:15:55.187Z,7.90
2019-04-11T12:18:54.932Z,7.90
2019-04-11T12:21:30.992Z,7.80
2019-04-11T12:24:32.410Z,7.60
2019-04-11T12:27:22.441Z,7.40
2019-04-11T12:30:13.337Z,7.20
2019-04-11T12:33:06.494Z,7.00
2019-04-11T12:36:09.843Z,6.80
2019-04-11T12:39:11.630Z,6.70
2019-04-11T12:42:14.990Z,6.60
2019-04-11T12:45:03.299Z,6.60
2019-04-11T12:47:38.734Z,6.60
2019-04-11T12:50:29.927Z,6.70
2019-04-11T12:53:19.815Z,6.80
2019-04-11T12:56:08.314Z,6.90
2019-04-11T12:58:44.683Z,6.90
2019-04-11T13:01:52.683Z,7.10
2019-04-11T13:04:34.405Z,7.30
2019-04-11T13:07:33.387Z,7.50
2019-04-11T13:10:33.413Z,7.50
2019-04-11T13:13:23.574Z,7.40
2019-04-11T13:16:12.330Z,7.30
2019-04-11T13:19:04.638Z,7.20
2019-04-11T13:21:48.498Z,7.10
2019-04-11T13:24:38.118Z,7.10
2019-04-11T13:27:27.743Z,7.20
2019-04-11T13:30:17.359Z,7.50
2019-04-11T13:32:49.864Z,7.80
2019-04-11T13:35:54.735Z,8.00
2019-04-11T13:38:47.266Z,8.00
2019-04-11T13:41:33.363Z,7.90
2019-04-11T13:44:19.076Z,7.70
2019-04-11T13:47:08.966Z,7.50
2019-04-11T13:49:54.110Z,7.40
2019-04-11T13:52:43.700Z,7.30
2019-04-11T13:55:22.830Z,7.20
2019-04-11T13:58:12.870Z,7.20
2019-04-11T14:00:54.093Z,7.20
2019-04-11T14:03:43.550Z,7.30
2019-04-11T14:06:29.534Z,7.30
2019-04-11T14:09:20.478Z,7.40
2019-04-11T14:11:52.481Z,7.40
2019-04-11T14:14:29.060Z,7.40
2019-04-11T14:17:17.360Z,7.40
2019-04-11T14:20:28.630Z,7.40
2019-04-11T14:23:15.029Z,7.40
2019-04-11T14:26:12.561Z,7.30
2019-04-11T14:28:49.458Z,7.30
2019-04-11T14:31:47.403Z,7.30
2019-04-11T14:34:35.830Z,7.40
2019-04-11T14:37:23.826Z,7.50
2019-04-11T14:39:58.665Z,7.60
2019-04-11T14:42:49.796Z,7.60
2019-04-11T14:45:45.290Z,7.60
2019-04-11T14:48:20.202Z,7.70
2019-04-11T14:51:16.678Z,7.60
2019-04-11T14:54:01.928Z,7.60
2019-04-11T14:56:33.168Z,7.50
2019-04-11T14:59:24.724Z,7.40
2019-04-11T15:02:02.075Z,7.30
2019-04-11T15:05:13.603Z,7.20
2019-04-11T15:07:43.685Z,7.10
2019-04-11T15:10:37.750Z,7.00
2019-04-11T15:13:09.744Z,6.90
2019-04-11T15:16:11.425Z,6.90
2019-04-11T15:18:47.786Z,6.80
2019-04-11T15:21:43.170Z,6.80
2019-04-11T15:24:15.171Z,6.70
2019-04-11T15:27:08.745Z,6.60
2019-04-11T15:29:40.356Z,6.60
2019-04-11T15:32:31.092Z,6.50
2019-04-11T15:35:11.232Z,6.50
2019-04-11T15:37:59.743Z,6.40
2019-04-11T15:40:52.669Z,6.30
2019-04-11T15:43:43.643Z,6.30
2019-04-11T15:46:26.082Z,6.20
2019-04-11T15:49:20.430Z,6.00
2019-04-11T15:51:58.966Z,6.00
2019-04-11T15:54:48.778Z,5.90
2019-04-11T15:57:53.306Z,5.80
2019-04-11T16:00:43.872Z,5.80
2019-04-11T16:03:25.799Z,5.70
2019-04-11T16:06:13.863Z,5.70
2019-04-11T16:09:11.677Z,5.60
2019-04-11T16:12:07.439Z,5.60
2019-04-11T16:14:39.572Z,5.50
2019-04-11T16:17:35.953Z,5.50
2019-04-11T16:20:19.469Z,5.40
2019-04-11T16:23:15.286Z,5.40
2019-04-11T16:25:50.135Z,5.30
2019-04-11T16:28:59.141Z,5.30
2019-04-11T16:31:40.141Z,5.20
2019-04-11T16:34:16.905Z,5.10
2019-04-11T16:36:50.883Z,5.10
2019-04-11T16:39:50.150Z,5.00
2019-04-11T16:42:27.490Z,5.00
2019-04-11T16:45:17.075Z,4.90
2019-04-11T16:48:01.963Z,4.90
2019-04-11T16:50:33.294Z,4.80
2019-04-11T16:53:04.748Z,4.80
2019-04-11T16:55:36.786Z,4.70
2019-04-11T16:58:09.158Z,4.70
2019-04-11T17:00:39.957Z,4.60
2019-04-11T17:03:10.650Z,4.60
2019-04-11T17:05:43.834Z,4.50
2019-04-11T17:08:42.335Z,4.50
2019-04-11T17:11:20.422Z,4.50
2019-04-11T17:13:51.358Z,4.40
2019-04-11T17:16:22.470Z,4.40
2019-04-11T17:18:53.352Z,4.30
2019-04-11T17:21:23.921Z,4.30
2019-04-11T17:23:54.769Z,4.20
2019-04-11T17:26:25.531Z,4.20
2019-04-11T17:28:56.346Z,4.20
2019-04-11T17:31:27.239Z,4.10
2019-04-11T17:34:01.469Z,4.10
2019-04-11T17:36:30.768Z,4.00
2019-04-11T17:39:06.785Z,4.00
2019-04-11T17:41:35.735Z,4.00
2019-04-11T17:44:06.386Z,3.90
2019-04-11T17:46:36.951Z,3.90
2019-04-11T17:49:08.201Z,3.80
2019-04-11T17:51:38.911Z,3.80
2019-04-11T17:54:09.650Z,3.80
2019-04-11T17:56:40.258Z,3.70
2019-04-11T17:59:12.234Z,3.60
2019-04-11T18:01:43.126Z,3.60
2019-04-11T18:04:14.154Z,3.50
2019-04-11T18:06:46.919Z,3.40
2019-04-11T18:09:17.231Z,3.30
2019-04-11T18:11:47.950Z,3.30
2019-04-11T18:14:18.799Z,3.10
2019-04-11T18:16:49.519Z,3.10
2019-04-11T18:19:20.494Z,3.00
2019-04-11T18:21:51.531Z,2.90
2019-04-11T18:24:22.594Z,2.80
2019-04-11T18:26:53.162Z,2.70
2019-04-11T18:29:24.282Z,2.70
2019-04-11T18:31:55.450Z,2.60
2019-04-11T18:34:26.535Z,2.50
2019-04-11T18:36:56.994Z,2.50
2019-04-11T18:39:27.817Z,2.40
2019-04-11T18:41:58.447Z,2.40
2019-04-11T18:44:29.322Z,2.30
2019-04-11T18:47:00.212Z,2.30
2019-04-11T18:49:30.943Z,2.20
2019-04-11T18:52:01.508Z,2.20
2019-04-11T18:54:32.280Z,2.10
2019-04-11T18:57:03.310Z,2.10
2019-04-11T18:59:34.489Z,2.10
2019-04-11T19:02:05.411Z,2.10
2019-04-11T19:04:36.263Z,2.00
2019-04-11T19:07:06.753Z,1.90
2019-04-11T19:09:37.870Z,1.80
2019-04-11T19:12:09.331Z,1.80
2019-04-11T19:14:40.110Z,1.70
2019-04-11T19:17:10.754Z,1.70
2019-04-11T19:19:43.318Z,1.70
2019-04-11T19:22:14.907Z,1.60
2019-04-11T19:24:45.440Z,1.60
2019-04-11T19:27:16.526Z,1.60
2019-04-11T19:29:48.632Z,1.50
2019-04-11T19:32:19.576Z,1.50
2019-04-11T19:34:50.307Z,1.50
2019-04-11T19:37:21.400Z,1.40
2019-04-11T19:39:52.476Z,1.40
2019-04-11T19:42:24.800Z,1.40
2019-04-11T19:44:55.729Z,1.30
2019-04-11T19:47:26.462Z,1.30
2019-04-11T19:49:58.817Z,1.30
2019-04-11T19:52:29.944Z,1.20
2019-04-11T19:55:14.338Z,1.20
2019-04-11T19:57:45.244Z,1.20
2019-04-11T20:00:16.470Z,1.10
2019-04-11T20:02:47.631Z,1.10
2019-04-11T20:05:18.240Z,1.10
2019-04-11T20:07:49.223Z,1.00
2019-04-11T20:10:20.151Z,1.00
2019-04-11T20:12:51.046Z,0.90
2019-04-11T20:15:22.027Z,0.90
2019-04-11T20:17:52.867Z,0.90
2019-04-11T20:20:23.467Z,0.90
2019-04-11T20:22:59.144Z,0.90
2019-04-11T20:25:26.666Z,0.80
2019-04-11T20:27:57.654Z,0.80
2019-04-11T20:30:29.533Z,0.80
2019-04-11T20:33:02.940Z,0.80
2019-04-11T20:35:32.716Z,0.80
2019-04-11T20:38:03.322Z,0.70
2019-04-11T20:40:34.102Z,0.70
2019-04-11T20:43:04.909Z,0.70
2019-04-11T20:45:38.217Z,0.60
2019-04-11T20:48:09.079Z,0.60
2019-04-11T20:50:39.965Z,0.60
2019-04-11T20:53:13.268Z,0.60
2019-04-11T20:55:44.411Z,0.60
2019-04-11T20:58:26.533Z,0.50
2019-04-11T21:00:50.827Z,0.50
2019-04-11T21:03:20.271Z,0.50
2019-04-11T21:05:51.362Z,0.50
2019-04-11T21:08:21.882Z,0.60
2019-04-11T21:10:52.778Z,0.60
2019-04-11T21:13:23.306Z,0.50
2019-04-11T21:15:55.043Z,0.50
2019-04-11T21:18:26.362Z,0.50
2019-04-11T21:20:57.318Z,0.50
2019-04-11T21:23:29.731Z,0.50
2019-04-11T21:26:02.010Z,0.40
2019-04-11T21:28:33.576Z,0.40
2019-04-11T21:31:04.478Z,0.30
2019-04-11T21:33:44.440Z,0.30
2019-04-11T21:36:15.035Z,0.30
2019-04-11T21:38:46.076Z,0.30
2019-04-11T21:41:16.745Z,0.30
2019-04-11T21:43:47.418Z,0.30
2019-04-11T21:46:18.310Z,0.30
2019-04-11T21:48:49.216Z,0.40
2019-04-11T21:51:19.758Z,0.40
2019-04-11T21:53:50.486Z,0.40
2019-04-11T21:56:21.370Z,0.40
2019-04-11T21:58:51.973Z,0.40
2019-04-11T22:01:24.890Z,0.40
2019-04-11T22:03:57.948Z,0.40
2019-04-11T22:06:30.612Z,0.30
2019-04-11T22:09:04.860Z,0.40
2019-04-11T22:11:35.352Z,0.40
2019-04-11T22:14:10.988Z,0.40
2019-04-11T22:16:39.140Z,0.40
2019-04-11T22:19:13.925Z,0.40
2019-04-11T22:21:45.056Z,0.40
2019-04-11T22:24:14.994Z,0.40
2019-04-11T22:26:50.117Z,0.40
2019-04-11T22:29:18.211Z,0.40
2019-04-11T22:31:49.063Z,0.40
2019-04-11T22:34:36.458Z,0.40
2019-04-11T22:37:07.360Z,0.40
2019-04-11T22:39:38.067Z,0.40
2019-04-11T22:42:09.003Z,0.40
2019-04-11T22:44:39.759Z,0.40
2019-04-11T22:47:10.423Z,0.40
2019-04-11T22:49:41.502Z,0.40
2019-04-11T22:52:12.328Z,0.40
2019-04-11T22:54:43.147Z,0.40
2019-04-11T22:57:13.837Z,0.40
2019-04-11T22:59:45.265Z,0.30
2019-04-11T23:02:35.887Z,0.30
2019-04-11T23:05:07.434Z,0.30
2019-04-11T23:07:38.139Z,0.30
2019-04-11T23:10:09.046Z,0.30
2019-04-11T23:12:39.943Z,0.30
2019-04-11T23:15:14.875Z,0.30
2019-04-11T23:17:44.585Z,0.30
2019-04-11T23:20:16.020Z,0.30
2019-04-11T23:22:47.001Z,0.30
2019-04-11T23:25:17.779Z,0.30
2019-04-11T23:27:50.532Z,0.30
2019-04-11T23:30:21.490Z,0.20
2019-04-11T23:32:52.854Z,0.20
2019-04-11T23:35:23.727Z,0.20
2019-04-11T23:37:54.676Z,0.20
2019-04-11T23:40:25.808Z,0.20
2019-04-11T23:42:56.679Z,0.20
2019-04-11T23:45:29.364Z,0.10
2019-04-11T23:48:00.132Z,0.10
2019-04-11T23:50:35.185Z,0.10
2019-04-11T23:53:05.786Z,0.10
2019-04-11T23:55:38.047Z,0.10
2019-04-11T23:58:08.890Z,0.00
